createdAt,value
2019-02-12T00:01:14.033Z,14.90
2019-02-12T00:06:22.221Z,20.40
2019-02-12T00:11:29.931Z,21.03
2019-02-12T00:16:38.218Z,15.00
2019-02-12T00:21:44.387Z,12.97
2019-02-12T00:26:52.210Z,16.33
2019-02-12T00:31:58.179Z,14.37
2019-02-12T00:37:04.319Z,18.37
2019-02-12T00:42:11.498Z,16.40
2019-02-12T00:47:17.866Z,14.63
2019-02-12T00:52:27.231Z,18.90
2019-02-12T00:57:36.050Z,13.77
2019-02-12T01:02:44.087Z,13.47
2019-02-12T01:07:51.852Z,16.87
2019-02-12T01:13:00.854Z,12.60
2019-02-12T01:18:09.166Z,12.97
2019-02-12T01:23:16.992Z,15.37
2019-02-12T01:28:26.307Z,23.47
2019-02-12T01:33:34.523Z,13.33
2019-02-12T01:38:41.301Z,13.57
2019-02-12T01:43:48.199Z,13.03
2019-02-12T01:48:55.028Z,11.07
2019-02-12T01:54:02.842Z,17.53
2019-02-12T01:59:10.175Z,15.97
2019-02-12T02:04:17.215Z,18.20
2019-02-12T02:09:25.224Z,15.73
2019-02-12T02:14:31.779Z,17.80
2019-02-12T02:19:39.106Z,14.73
2019-02-12T02:24:46.896Z,15.23
2019-02-12T02:29:55.642Z,14.00
2019-02-12T02:35:03.348Z,20.27
2019-02-12T02:40:11.482Z,16.40
2019-02-12T02:45:18.615Z,15.40
2019-02-12T02:50:24.808Z,20.23
2019-02-12T02:55:32.390Z,21.10
2019-02-12T03:00:39.116Z,17.97
2019-02-12T03:05:45.318Z,21.77
2019-02-12T03:10:53.382Z,20.33
2019-02-12T03:16:01.251Z,17.60
2019-02-12T03:21:07.362Z,21.17
2019-02-12T03:26:14.103Z,17.57
2019-02-12T03:31:21.206Z,23.03
2019-02-12T03:36:27.125Z,19.30
2019-02-12T03:41:34.703Z,21.60
2019-02-12T03:46:41.028Z,23.80
2019-02-12T03:51:47.196Z,21.83
2019-02-12T03:56:54.003Z,18.33
2019-02-12T04:02:01.376Z,20.53
2019-02-12T04:07:08.303Z,19.57
2019-02-12T04:12:14.443Z,21.20
2019-02-12T04:17:21.093Z,19.83
2019-02-12T04:22:28.814Z,26.97
2019-02-12T04:27:35.527Z,22.67
2019-02-12T04:32:43.162Z,23.20
2019-02-12T04:37:52.612Z,27.00
2019-02-12T04:42:59.144Z,26.17
2019-02-12T04:48:05.497Z,26.63
2019-02-12T04:53:15.049Z,26.20
2019-02-12T04:58:23.071Z,22.83
2019-02-12T05:03:29.816Z,22.03
2019-02-12T05:09:11.574Z,23.37
2019-02-12T05:14:18.615Z,25.27
2019-02-12T05:19:25.078Z,22.67
2019-02-12T05:24:31.626Z,17.23
2019-02-12T05:29:38.560Z,19.17
2019-02-12T05:34:46.634Z,14.43
2019-02-12T05:39:54.605Z,18.97
2019-02-12T05:45:03.231Z,19.97
2019-02-12T05:50:12.522Z,17.27
2019-02-12T05:55:20.278Z,18.43
2019-02-12T06:00:31.115Z,13.37
2019-02-12T06:05:37.719Z,20.00
2019-02-12T06:10:44.348Z,18.40
2019-02-12T06:15:51.753Z,19.20
2019-02-12T06:20:57.946Z,24.40
2019-02-12T06:26:04.337Z,17.60
2019-02-12T06:31:12.886Z,21.23
2019-02-12T06:36:20.159Z,19.90
2019-02-12T06:41:27.781Z,21.10
2019-02-12T06:46:34.261Z,20.10
2019-02-12T06:51:42.423Z,19.27
2019-02-12T06:56:49.127Z,20.53
2019-02-12T07:02:33.511Z,24.70
2019-02-12T07:08:19.982Z,20.87
2019-02-12T07:13:51.562Z,35.17
2019-02-12T07:19:41.697Z,35.90
2019-02-12T07:25:30.927Z,27.73
2019-02-12T07:31:13.618Z,29.97
2019-02-12T07:37:15.927Z,21.23
2019-02-12T07:42:46.478Z,19.97
2019-02-12T07:48:10.654Z,20.50
2019-02-12T07:53:42.978Z,20.73
2019-02-12T07:59:14.075Z,30.63
2019-02-12T08:04:57.984Z,34.20
2019-02-12T08:10:28.825Z,32.80
2019-02-12T08:16:01.190Z,14.57
2019-02-12T08:21:54.115Z,19.10
2019-02-12T08:27:46.282Z,20.77
2019-02-12T08:33:35.083Z,20.30
2019-02-12T08:39:18.702Z,24.20
2019-02-12T08:44:45.037Z,21.23
2019-02-12T08:50:45.625Z,20.00
2019-02-12T08:56:25.531Z,27.47
2019-02-12T09:01:52.543Z,19.00
2019-02-12T09:07:36.288Z,15.63
2019-02-12T09:13:15.902Z,16.20
2019-02-12T09:19:04.966Z,14.40
2019-02-12T09:25:01.825Z,17.20
2019-02-12T09:30:46.535Z,13.37
2019-02-12T09:36:26.144Z,12.40
2019-02-12T09:42:35.851Z,12.60
2019-02-12T09:48:42.126Z,12.23
2019-02-12T09:54:29.121Z,8.53
2019-02-12T10:00:32.231Z,7.23
2019-02-12T10:06:09.855Z,14.97
2019-02-12T10:12:01.085Z,6.77
2019-02-12T10:17:58.371Z,15.80
2019-02-12T10:24:00.526Z,6.27
2019-02-12T10:29:29.102Z,9.93
2019-02-12T10:34:36.996Z,6.20
2019-02-12T10:39:44.918Z,7.13
2019-02-12T10:44:54.039Z,8.40
2019-02-12T10:50:01.305Z,8.43
2019-02-12T10:55:08.023Z,5.97
2019-02-12T11:00:15.478Z,7.63
2019-02-12T11:05:21.652Z,5.00
2019-02-12T11:10:29.619Z,5.43
2019-02-12T11:15:38.789Z,10.37
2019-02-12T11:20:45.919Z,6.67
2019-02-12T11:25:56.498Z,11.90
2019-02-12T11:31:05.991Z,5.70
2019-02-12T11:36:13.788Z,9.37
2019-02-12T11:41:21.505Z,8.73
2019-02-12T11:46:29.070Z,7.27
2019-02-12T11:51:36.097Z,5.70
2019-02-12T11:56:44.171Z,3.47
2019-02-12T12:01:54.070Z,3.30
2019-02-12T12:07:00.170Z,6.77
2019-02-12T12:12:07.046Z,9.17
2019-02-12T12:17:13.997Z,5.63
2019-02-12T12:22:22.004Z,7.37
2019-02-12T12:27:29.706Z,10.30
2019-02-12T12:32:37.645Z,12.93
2019-02-12T12:37:45.177Z,11.90
2019-02-12T12:42:52.910Z,14.60
2019-02-12T12:48:00.240Z,12.27
2019-02-12T12:53:07.319Z,10.77
2019-02-12T12:58:18.126Z,13.77
2019-02-12T13:03:26.322Z,12.83
2019-02-12T13:08:35.334Z,14.13
2019-02-12T13:13:43.426Z,9.37
2019-02-12T13:18:49.577Z,9.00
2019-02-12T13:23:56.508Z,12.20
2019-02-12T13:29:04.459Z,9.47
2019-02-12T13:34:10.519Z,8.93
2019-02-12T13:39:17.953Z,9.27
2019-02-12T13:44:26.124Z,8.37
2019-02-12T13:49:34.418Z,10.33
2019-02-12T13:54:42.387Z,10.43
2019-02-12T13:59:49.644Z,11.20
2019-02-12T14:04:56.183Z,6.63
2019-02-12T14:10:04.298Z,6.93
2019-02-12T14:15:13.146Z,10.37
2019-02-12T14:20:21.287Z,14.03
2019-02-12T14:25:29.735Z,17.17
2019-02-12T14:30:37.105Z,15.40
2019-02-12T14:35:45.222Z,13.13
2019-02-12T14:40:54.209Z,13.33
2019-02-12T14:46:02.042Z,10.43
2019-02-12T14:51:09.169Z,20.13
2019-02-12T14:56:15.507Z,12.90
2019-02-12T15:01:23.585Z,13.37
2019-02-12T15:06:31.208Z,14.03
2019-02-12T15:11:38.105Z,12.03
2019-02-12T15:16:44.048Z,17.70
2019-02-12T15:21:52.666Z,16.27
2019-02-12T15:26:59.623Z,11.70
2019-02-12T15:32:08.404Z,11.93
2019-02-12T15:37:16.507Z,14.93
2019-02-12T15:43:05.660Z,12.37
2019-02-12T15:48:13.654Z,9.67
2019-02-12T15:53:22.466Z,6.73
2019-02-12T15:58:30.308Z,12.10
2019-02-12T16:03:38.212Z,9.03
2019-02-12T16:08:45.056Z,11.17
2019-02-12T16:13:54.724Z,10.87
2019-02-12T16:19:02.641Z,9.37
2019-02-12T16:24:11.589Z,10.97
2019-02-12T16:29:18.802Z,8.83
2019-02-12T16:34:25.634Z,16.13
2019-02-12T16:39:35.266Z,12.60
2019-02-12T16:44:44.493Z,13.57
2019-02-12T16:49:52.404Z,14.20
2019-02-12T16:55:01.450Z,12.07
2019-02-12T17:00:11.436Z,10.23
2019-02-12T17:05:18.632Z,12.33
2019-02-12T17:10:24.677Z,12.93
2019-02-12T17:15:32.490Z,17.13
2019-02-12T17:20:39.810Z,16.63
2019-02-12T17:25:47.815Z,14.60
2019-02-12T17:30:56.127Z,24.97
2019-02-12T17:36:04.299Z,33.93
2019-02-12T17:41:12.049Z,22.43
2019-02-12T17:46:18.672Z,36.00
2019-02-12T17:51:26.519Z,23.43
2019-02-12T17:56:34.095Z,43.33
2019-02-12T18:01:41.235Z,39.70
2019-02-12T18:06:48.813Z,31.80
2019-02-12T18:11:56.114Z,30.87
2019-02-12T18:17:03.722Z,31.47
2019-02-12T18:22:13.460Z,44.63
2019-02-12T18:27:23.618Z,39.97
2019-02-12T18:32:31.278Z,55.27
2019-02-12T18:37:38.683Z,48.27
2019-02-12T18:42:46.783Z,41.03
2019-02-12T18:47:54.359Z,40.23
2019-02-12T18:53:03.363Z,40.73
2019-02-12T18:58:10.648Z,26.87
2019-02-12T19:03:18.780Z,35.60
2019-02-12T19:08:25.344Z,56.77
2019-02-12T19:13:33.339Z,64.27
2019-02-12T19:18:41.460Z,41.70
2019-02-12T19:23:49.519Z,32.10
2019-02-12T19:28:56.856Z,25.30
2019-02-12T19:34:04.111Z,24.23
2019-02-12T19:39:12.206Z,22.73
2019-02-12T19:44:21.941Z,23.70
2019-02-12T19:49:29.632Z,25.93
2019-02-12T19:54:39.593Z,29.47
2019-02-12T19:59:48.790Z,19.37
2019-02-12T20:04:56.282Z,26.17
2019-02-12T20:10:04.974Z,18.07
2019-02-12T20:15:11.958Z,16.47
2019-02-12T20:20:18.495Z,19.73
2019-02-12T20:25:24.561Z,37.50
2019-02-12T20:30:31.326Z,16.63
2019-02-12T20:35:37.714Z,12.63
2019-02-12T20:40:44.419Z,17.37
2019-02-12T20:45:52.679Z,22.27
2019-02-12T20:50:59.920Z,26.93
2019-02-12T20:56:07.128Z,22.17
2019-02-12T21:01:14.963Z,21.53
2019-02-12T21:06:23.487Z,18.63
2019-02-12T21:11:32.283Z,25.60
2019-02-12T21:16:39.212Z,14.00
2019-02-12T21:21:45.482Z,20.03
2019-02-12T21:26:53.458Z,28.80
2019-02-12T21:32:01.388Z,20.60
2019-02-12T21:37:07.804Z,15.87
2019-02-12T21:42:15.865Z,19.23
2019-02-12T21:47:23.798Z,21.30
2019-02-12T21:52:31.910Z,17.67
2019-02-12T21:57:39.520Z,20.00
2019-02-12T22:02:46.697Z,23.37
2019-02-12T22:08:10.816Z,26.60
2019-02-12T22:13:17.826Z,35.03
2019-02-12T22:18:23.911Z,26.63
2019-02-12T22:23:31.779Z,17.43
2019-02-12T22:28:39.034Z,17.60
2019-02-12T22:33:46.007Z,16.03
2019-02-12T22:38:53.828Z,17.03
2019-02-12T22:44:01.535Z,16.27
2019-02-12T22:49:08.665Z,18.80
2019-02-12T22:54:16.324Z,15.13
2019-02-12T22:59:24.323Z,13.93
2019-02-12T23:04:32.228Z,16.23
2019-02-12T23:09:40.196Z,18.10
2019-02-12T23:14:47.339Z,16.67
2019-02-12T23:19:55.759Z,14.70
2019-02-12T23:25:04.111Z,12.17
2019-02-12T23:30:12.372Z,14.40
2019-02-12T23:35:19.263Z,13.67
2019-02-12T23:40:26.882Z,12.47
2019-02-12T23:45:34.367Z,11.70
2019-02-12T23:50:43.531Z,9.93
2019-02-12T23:55:52.248Z,9.87
